| time (UTC) | temp C | wind direction | speed KPH | gust KPH | rain 1hr cm | rain 24hr cm | rain mn cm | humidity % | barometer mb |
| 20260504210959 | 28 | 339 | 0.0 | 4.8 | 0.00 | 0.00 | 0.00 | 42 | 1052.4 |
| 20260504210456 | 28 | 261 | 1.6 | 3.2 | 0.00 | 0.00 | 0.00 | 40 | 1052.3 |
| 20260504205953 | 30 | 42 | 0.0 | 1.6 | 0.00 | 0.00 | 0.00 | 42 | 1052.3 |
| 20260504205450 | 27 | 4 | 0.0 | 3.2 | 0.00 | 0.00 | 0.00 | 41 | 1052.5 |
| 20260504204948 | 28 | 14 | 0.0 | 3.2 | 0.00 | 0.00 | 0.00 | 43 | 1052.6 |
| 20260504204441 | 28 | 189 | 0.0 | 0.0 | 0.00 | 0.00 | 0.00 | 40 | 1052.5 |
| 20260504203940 | 28 | 226 | 0.0 | 1.6 | 0.00 | 0.00 | 0.00 | 42 | 1052.5 |
| 20260504203437 | 29 | 260 | 1.6 | 6.4 | 0.00 | 0.00 | 0.00 | 41 | 1052.6 |
| 20260504202933 | 28 | 348 | 1.6 | 3.2 | 0.00 | 0.00 | 0.00 | 40 | 1052.7 |
| 20260504202430 | 28 | 210 | 0.0 | 1.6 | 0.00 | 0.00 | 0.00 | 39 | 1052.6 |
| 20260504201927 | 28 | 5 | 0.0 | 1.6 | 0.00 | 0.00 | 0.00 | 42 | 1052.9 |
| 20260504201424 | 28 | 304 | 1.6 | 3.2 | 0.00 | 0.00 | 0.00 | 39 | 1052.9 |
| 20260504200921 | 28 | 353 | 0.0 | 3.2 | 0.00 | 0.00 | 0.00 | 42 | 1052.9 |
| 20260504200417 | 28 | 353 | 0.0 | 3.2 | 0.00 | 0.00 | 0.00 | 42 | 1052.9 |
| 20260504195914 | 28 | 353 | 0.0 | 3.2 | 0.00 | 0.00 | 0.00 | 42 | 1052.9 |
| 20260504195410 | 28 | 12 | 0.0 | 3.2 | 0.00 | 0.00 | 0.00 | 43 | 1053.2 |
| 20260504194907 | 30 | 204 | 0.0 | 3.2 | 0.00 | 0.00 | 0.00 | 42 | 1053.0 |
| 20260504194402 | 27 | 195 | 0.0 | 1.6 | 0.00 | 0.00 | 0.00 | 44 | 1053.1 |
| 20260504193859 | 27 | 191 | 0.0 | 4.8 | 0.00 | 0.00 | 0.00 | 43 | 1053.3 |
| 20260504193356 | 28 | 180 | 3.2 | 4.8 | 0.00 | 0.00 | 0.00 | 42 | 1053.2 |
| 20260504192855 | 28 | 201 | 0.0 | 3.2 | 0.00 | 0.00 | 0.00 | 43 | 1053.3 |
| 20260504192352 | 29 | 309 | 0.0 | 1.6 | 0.00 | 0.00 | 0.00 | 42 | 1053.4 |
| 20260504191850 | 27 | 351 | 0.0 | 1.6 | 0.00 | 0.00 | 0.00 | 43 | 1053.5 |
| 20260504191348 | 26 | 318 | 0.0 | 3.2 | 0.00 | 0.00 | 0.00 | 44 | 1053.5 |
| 20260504190843 | 26 | 52 | 0.0 | 4.8 | 0.00 | 0.00 | 0.00 | 44 | 1053.6 |
| 20260504190339 | 27 | 16 | 0.0 | 1.6 | 0.00 | 0.00 | 0.00 | 44 | 1053.6 |
| 20260504185836 | 27 | 18 | 0.0 | 3.2 | 0.00 | 0.00 | 0.00 | 41 | 1053.8 |
| 20260504185333 | 28 | 203 | 0.0 | 4.8 | 0.00 | 0.00 | 0.00 | 45 | 1054.0 |
| 20260504184829 | 28 | 131 | 0.0 | 1.6 | 0.00 | 0.00 | 0.00 | 41 | 1053.8 |
| 20260504184325 | 28 | 131 | 0.0 | 1.6 | 0.00 | 0.00 | 0.00 | 41 | 1053.8 |
| 20260504183821 | 28 | 203 | 1.6 | 3.2 | 0.00 | 0.00 | 0.00 | 42 | 1054.1 |
| 20260504183318 | 27 | 252 | 0.0 | 0.0 | 0.00 | 0.00 | 0.00 | 41 | 1053.8 |
| 20260504182816 | 28 | 217 | 0.0 | 1.6 | 0.00 | 0.00 | 0.00 | 42 | 1054.2 |
| 20260504182313 | 30 | 192 | 0.0 | 3.2 | 0.00 | 0.00 | 0.00 | 40 | 1054.0 |
| 20260504181810 | 28 | 190 | 1.6 | 3.2 | 0.00 | 0.00 | 0.00 | 40 | 1054.4 |
| 20260504181308 | 28 | 336 | 0.0 | 0.0 | 0.00 | 0.00 | 0.00 | 44 | 1054.3 |
| 20260504180807 | 27 | 2 | 0.0 | 1.6 | 0.00 | 0.00 | 0.00 | 41 | 1054.5 |
| 20260504180305 | 27 | 220 | 1.6 | 3.2 | 0.00 | 0.00 | 0.00 | 43 | 1054.4 |
| 20260504175802 | 25 | 203 | 0.0 | 1.6 | 0.00 | 0.00 | 0.00 | 48 | 1054.4 |
| 20260504175259 | 26 | 192 | 1.6 | 1.6 | 0.00 | 0.00 | 0.00 | 42 | 1054.6 |
| 20260504174757 | 25 | 299 | 0.0 | 3.2 | 0.00 | 0.00 | 0.00 | 44 | 1054.4 |
| 20260504174254 | 25 | 302 | 1.6 | 3.2 | 0.00 | 0.00 | 0.00 | 43 | 1054.5 |
| 20260504173750 | 26 | 262 | 0.0 | 4.8 | 0.00 | 0.00 | 0.00 | 45 | 1054.7 |
| 20260504173248 | 25 | 212 | 0.0 | 0.0 | 0.00 | 0.00 | 0.00 | 45 | 1054.7 |
| 20260504172744 | 26 | 190 | 1.6 | 3.2 | 0.00 | 0.00 | 0.00 | 42 | 1054.7 |
| 20260504172241 | 25 | 228 | 0.0 | 0.0 | 0.00 | 0.00 | 0.00 | 48 | 1054.9 |
| 20260504171737 | 25 | 271 | 0.0 | 0.0 | 0.00 | 0.00 | 0.00 | 44 | 1054.8 |
| 20260504171234 | 26 | 317 | 0.0 | 1.6 | 0.00 | 0.00 | 0.00 | 49 | 1054.9 |
| 20260504170731 | 24 | 294 | 0.0 | 3.2 | 0.00 | 0.00 | 0.00 | 45 | 1055.1 |
| 20260504170229 | 25 | 264 | 0.0 | 1.6 | 0.00 | 0.00 | 0.00 | 46 | 1055.0 |
| 20260504160147 | 21 | 149 | 0.0 | 1.6 | 0.00 | 0.00 | 0.00 | 48 | 1055.8 |
| 20260504151114 | 20 | 149 | 0.0 | 3.2 | 0.00 | 0.00 | 0.00 | 54 | 1056.9 |
| 20260504150612 | 20 | 10 | 0.0 | 4.8 | 0.00 | 0.00 | 0.00 | 53 | 1056.6 |
| 20260504150109 | 19 | 2 | 0.0 | 6.4 | 0.00 | 0.00 | 0.00 | 58 | 1056.9 |
| 20260504141037 | 16 | 221 | 0.0 | 0.0 | 0.00 | 0.00 | 0.00 | 74 | 1056.4 |
| 20260504140534 | 15 | 217 | 0.0 | 0.0 | 0.00 | 0.00 | 0.00 | 70 | 1056.4 |
| 20260504130458 | 11 | 48 | 0.0 | 0.0 | 0.00 | 0.00 | 0.00 | 89 | 1056.1 |
| 20260504110345 | 5 | 38 | 0.0 | 0.0 | 0.00 | 0.00 | 0.00 | 99 | 1055.6 |
| 20260504100258 | 4 | 21 | 0.0 | 0.0 | 0.00 | 0.00 | 0.00 | 99 | 1055.7 |
| 20260504081651 | 5 | 25 | 0.0 | 0.0 | 0.00 | 0.00 | 0.00 | 99 | 1055.6 |
| 20260504081147 | 5 | 25 | 0.0 | 0.0 | 0.00 | 0.00 | 0.00 | 99 | 1055.6 |
| 20260504080644 | 5 | 25 | 0.0 | 0.0 | 0.00 | 0.00 | 0.00 | 99 | 1055.6 |
| 20260504080140 | 5 | 25 | 0.0 | 0.0 | 0.00 | 0.00 | 0.00 | 99 | 1055.6 |
| 20260504070109 | 6 | 25 | 0.0 | 0.0 | 0.00 | 0.00 | 0.00 | 99 | 1055.7 |
| 20260504050457 | 7 | 25 | 0.0 | 0.0 | 0.00 | 0.00 | 0.00 | 98 | 1055.9 |
| 20260504045954 | 7 | 25 | 0.0 | 0.0 | 0.00 | 0.00 | 0.00 | 98 | 1055.9 |
| 20260504045450 | 7 | 25 | 0.0 | 0.0 | 0.00 | 0.00 | 0.00 | 97 | 1056.0 |
| 20260504044946 | 7 | 25 | 0.0 | 0.0 | 0.00 | 0.00 | 0.00 | 98 | 1056.0 |
| 20260504044443 | 7 | 25 | 0.0 | 0.0 | 0.00 | 0.00 | 0.00 | 97 | 1055.9 |
| 20260504043941 | 7 | 25 | 0.0 | 0.0 | 0.00 | 0.00 | 0.00 | 97 | 1056.0 |
| 20260504043437 | 7 | 25 | 0.0 | 0.0 | 0.00 | 0.00 | 0.00 | 96 | 1055.8 |
| 20260504042935 | 7 | 25 | 0.0 | 0.0 | 0.00 | 0.00 | 0.00 | 96 | 1055.8 |
| 20260504042432 | 8 | 25 | 0.0 | 0.0 | 0.00 | 0.00 | 0.00 | 95 | 1055.7 |
| 20260504041928 | 8 | 25 | 0.0 | 0.0 | 0.00 | 0.00 | 0.00 | 95 | 1055.7 |
| 20260504041424 | 8 | 25 | 0.0 | 0.0 | 0.00 | 0.00 | 0.00 | 94 | 1055.5 |
| 20260504040920 | 8 | 25 | 0.0 | 0.0 | 0.00 | 0.00 | 0.00 | 93 | 1055.7 |
| 20260504040418 | 8 | 25 | 0.0 | 0.0 | 0.00 | 0.00 | 0.00 | 93 | 1055.5 |
| 20260504035908 | 8 | 25 | 0.0 | 0.0 | 0.00 | 0.00 | 0.00 | 92 | 1055.7 |
| 20260504035406 | 8 | 25 | 0.0 | 0.0 | 0.00 | 0.00 | 0.00 | 91 | 1055.6 |
| 20260504034902 | 8 | 25 | 0.0 | 0.0 | 0.00 | 0.00 | 0.00 | 91 | 1055.7 |
| 20260504034400 | 8 | 25 | 0.0 | 0.0 | 0.00 | 0.00 | 0.00 | 90 | 1055.9 |
| 20260504033856 | 8 | 25 | 0.0 | 0.0 | 0.00 | 0.00 | 0.00 | 90 | 1055.8 |
| 20260504033355 | 8 | 23 | 0.0 | 0.0 | 0.00 | 0.00 | 0.00 | 89 | 1055.8 |
| 20260504032851 | 8 | 23 | 0.0 | 0.0 | 0.00 | 0.00 | 0.00 | 90 | 1055.9 |
| 20260504032348 | 8 | 23 | 0.0 | 0.0 | 0.00 | 0.00 | 0.00 | 89 | 1055.9 |
| 20260504031845 | 9 | 23 | 0.0 | 0.0 | 0.00 | 0.00 | 0.00 | 89 | 1056.0 |
| 20260504031342 | 9 | 23 | 0.0 | 0.0 | 0.00 | 0.00 | 0.00 | 89 | 1056.0 |
| 20260504030838 | 9 | 23 | 0.0 | 0.0 | 0.00 | 0.00 | 0.00 | 88 | 1055.9 |
| 20260504030336 | 10 | 23 | 0.0 | 0.0 | 0.00 | 0.00 | 0.00 | 87 | 1055.9 |
| 20260504025832 | 10 | 23 | 0.0 | 0.0 | 0.00 | 0.00 | 0.00 | 85 | 1055.9 |
| 20260504025329 | 10 | 23 | 0.0 | 0.0 | 0.00 | 0.00 | 0.00 | 85 | 1056.0 |
| 20260504024825 | 10 | 23 | 0.0 | 0.0 | 0.00 | 0.00 | 0.00 | 85 | 1055.9 |
| 20260504024322 | 10 | 23 | 0.0 | 0.0 | 0.00 | 0.00 | 0.00 | 84 | 1055.9 |
| 20260504023819 | 10 | 23 | 0.0 | 0.0 | 0.00 | 0.00 | 0.00 | 84 | 1055.8 |
| 20260504023316 | 10 | 23 | 0.0 | 0.0 | 0.00 | 0.00 | 0.00 | 83 | 1055.8 |
| 20260504022811 | 10 | 23 | 0.0 | 0.0 | 0.00 | 0.00 | 0.00 | 82 | 1055.7 |
| 20260504022308 | 10 | 23 | 0.0 | 0.0 | 0.00 | 0.00 | 0.00 | 81 | 1055.7 |
| 20260504021804 | 10 | 23 | 0.0 | 0.0 | 0.00 | 0.00 | 0.00 | 80 | 1055.6 |
| 20260504021303 | 10 | 23 | 0.0 | 0.0 | 0.00 | 0.00 | 0.00 | 79 | 1055.6 |
| 20260504020759 | 10 | 23 | 0.0 | 0.0 | 0.00 | 0.00 | 0.00 | 78 | 1055.7 |
| 20260504020256 | 11 | 23 | 0.0 | 0.0 | 0.00 | 0.00 | 0.00 | 80 | 1055.4 |
| 20260504015751 | 11 | 23 | 0.0 | 0.0 | 0.00 | 0.00 | 0.00 | 79 | 1055.3 |
| 20260504015248 | 11 | 23 | 0.0 | 0.0 | 0.00 | 0.00 | 0.00 | 79 | 1055.1 |
| 20260504014744 | 11 | 23 | 0.0 | 0.0 | 0.00 | 0.00 | 0.00 | 77 | 1055.2 |
| 20260504014241 | 11 | 23 | 0.0 | 0.0 | 0.00 | 0.00 | 0.00 | 76 | 1054.9 |
| 20260504013739 | 12 | 23 | 0.0 | 0.0 | 0.00 | 0.00 | 0.00 | 74 | 1054.7 |
| 20260504013236 | 12 | 23 | 0.0 | 0.0 | 0.00 | 0.00 | 0.00 | 73 | 1054.9 |
| 20260504012732 | 12 | 23 | 0.0 | 0.0 | 0.00 | 0.00 | 0.00 | 72 | 1055.0 |
| 20260504012230 | 12 | 23 | 0.0 | 0.0 | 0.00 | 0.00 | 0.00 | 72 | 1054.9 |
| 20260504011727 | 13 | 23 | 0.0 | 0.0 | 0.00 | 0.00 | 0.00 | 70 | 1054.9 |
| 20260504011224 | 13 | 23 | 0.0 | 0.0 | 0.00 | 0.00 | 0.00 | 67 | 1054.8 |
| 20260504010720 | 13 | 23 | 0.0 | 0.0 | 0.00 | 0.00 | 0.00 | 65 | 1054.7 |
| 20260504010215 | 13 | 23 | 0.0 | 0.0 | 0.00 | 0.00 | 0.00 | 64 | 1054.6 |
| 20260504005712 | 13 | 23 | 0.0 | 0.0 | 0.00 | 0.00 | 0.00 | 62 | 1054.7 |
| 20260504005209 | 13 | 23 | 0.0 | 0.0 | 0.00 | 0.00 | 0.00 | 61 | 1054.7 |
| 20260504004707 | 14 | 23 | 0.0 | 0.0 | 0.00 | 0.00 | 0.00 | 60 | 1054.6 |
| 20260504004204 | 14 | 23 | 0.0 | 0.0 | 0.00 | 0.00 | 0.00 | 59 | 1054.5 |
| 20260504003701 | 15 | 16 | 0.0 | 0.0 | 0.00 | 0.00 | 0.00 | 58 | 1054.5 |
| 20260504003157 | 15 | 16 | 0.0 | 0.0 | 0.00 | 0.00 | 0.00 | 57 | 1054.6 |
| 20260504002654 | 15 | 16 | 0.0 | 0.0 | 0.00 | 0.00 | 0.00 | 55 | 1054.5 |
| 20260504002151 | 16 | 16 | 0.0 | 0.0 | 0.00 | 0.00 | 0.00 | 55 | 1054.5 |
| 20260504001649 | 16 | 16 | 0.0 | 0.0 | 0.00 | 0.00 | 0.00 | 55 | 1054.3 |
| 20260504001145 | 16 | 16 | 0.0 | 0.0 | 0.00 | 0.00 | 0.00 | 52 | 1054.4 |
| 20260504000642 | 17 | 16 | 0.0 | 0.0 | 0.00 | 0.00 | 0.00 | 51 | 1054.4 |
| 20260504000140 | 17 | 16 | 0.0 | 0.0 | 0.00 | 0.00 | 0.00 | 50 | 1054.3 |
| 20260503235638 | 17 | 17 | 0.0 | 0.0 | 0.00 | 0.00 | 0.00 | 49 | 1054.2 |
| 20260503235134 | 17 | 14 | 0.0 | 0.0 | 0.00 | 0.00 | 0.00 | 50 | 1054.2 |
| 20260503234632 | 17 | 14 | 0.0 | 0.0 | 0.00 | 0.00 | 0.00 | 51 | 1054.2 |
| 20260503234130 | 18 | 42 | 0.0 | 0.0 | 0.00 | 0.00 | 0.00 | 50 | 1054.3 |
| 20260503233626 | 18 | 46 | 0.0 | 0.0 | 0.00 | 0.00 | 0.00 | 49 | 1054.3 |
| 20260503233121 | 18 | 48 | 0.0 | 0.0 | 0.00 | 0.00 | 0.00 | 48 | 1053.8 |
| 20260503232619 | 18 | 25 | 0.0 | 0.0 | 0.00 | 0.00 | 0.00 | 49 | 1054.1 |
| 20260503232111 | 18 | 27 | 0.0 | 0.0 | 0.00 | 0.00 | 0.00 | 46 | 1054.2 |
| 20260503231609 | 18 | 319 | 0.0 | 0.0 | 0.00 | 0.00 | 0.00 | 49 | 1054.1 |
| 20260503231105 | 18 | 318 | 0.0 | 0.0 | 0.00 | 0.00 | 0.00 | 47 | 1054.2 |
| 20260503230601 | 18 | 318 | 0.0 | 0.0 | 0.00 | 0.00 | 0.00 | 50 | 1054.2 |
| 20260503230053 | 19 | 317 | 0.0 | 0.0 | 0.00 | 0.00 | 0.00 | 46 | 1054.3 |
| 20260503225550 | 19 | 319 | 0.0 | 0.0 | 0.00 | 0.00 | 0.00 | 46 | 1054.2 |
| 20260503225045 | 19 | 286 | 0.0 | 0.0 | 0.00 | 0.00 | 0.00 | 46 | 1054.3 |
| 20260503224543 | 20 | 324 | 0.0 | 1.6 | 0.00 | 0.00 | 0.00 | 46 | 1054.1 |
| 20260503224041 | 20 | 321 | 0.0 | 0.0 | 0.00 | 0.00 | 0.00 | 44 | 1054.1 |
| 20260503223539 | 20 | 354 | 0.0 | 0.0 | 0.00 | 0.00 | 0.00 | 46 | 1054.3 |
| 20260503223034 | 20 | 352 | 0.0 | 1.6 | 0.00 | 0.00 | 0.00 | 45 | 1054.3 |
| 20260503222532 | 20 | 348 | 1.6 | 1.6 | 0.00 | 0.00 | 0.00 | 44 | 1054.3 |
| 20260503222030 | 20 | 329 | 0.0 | 0.0 | 0.00 | 0.00 | 0.00 | 44 | 1054.3 |
| 20260503221528 | 21 | 321 | 0.0 | 0.0 | 0.00 | 0.00 | 0.00 | 44 | 1054.4 |
| 20260503221025 | 22 | 310 | 1.6 | 1.6 | 0.00 | 0.00 | 0.00 | 39 | 1054.4 |
| 20260503220521 | 22 | 299 | 0.0 | 1.6 | 0.00 | 0.00 | 0.00 | 40 | 1054.4 |
| 20260503220018 | 23 | 324 | 0.0 | 4.8 | 0.00 | 0.00 | 0.00 | 37 | 1054.6 |
| 20260503215515 | 22 | 32 | 0.0 | 0.0 | 0.00 | 0.00 | 0.00 | 38 | 1054.5 |
| 20260503215012 | 23 | 335 | 0.0 | 1.6 | 0.00 | 0.00 | 0.00 | 38 | 1054.5 |
| 20260503214511 | 24 | 29 | 1.6 | 1.6 | 0.00 | 0.00 | 0.00 | 36 | 1054.6 |
| 20260503214007 | 23 | 8 | 0.0 | 0.0 | 0.00 | 0.00 | 0.00 | 38 | 1054.9 |
| 20260503213505 | 23 | 9 | 0.0 | 0.0 | 0.00 | 0.00 | 0.00 | 38 | 1054.8 |
| 20260503213001 | 23 | 330 | 0.0 | 0.0 | 0.00 | 0.00 | 0.00 | 37 | 1054.8 |
| 20260503212459 | 23 | 289 | 0.0 | 0.0 | 0.00 | 0.00 | 0.00 | 39 | 1054.7 |
| 20260503211955 | 23 | 276 | 0.0 | 1.6 | 0.00 | 0.00 | 0.00 | 37 | 1055.1 |
| 20260503211452 | 23 | 284 | 1.6 | 3.2 | 0.00 | 0.00 | 0.00 | 35 | 1055.3 |